createdAt,value
2023-04-08T00:00:31.702Z,4.00
2023-04-08T00:02:58.621Z,4.00
2023-04-08T00:05:25.486Z,4.00
2023-04-08T00:07:52.296Z,4.00
2023-04-08T00:10:19.511Z,4.00
2023-04-08T00:12:48.706Z,4.00
2023-04-08T00:15:15.661Z,4.00
2023-04-08T00:17:42.633Z,4.00
2023-04-08T00:20:09.940Z,4.00
2023-04-08T00:22:36.825Z,4.00
2023-04-08T00:25:06.685Z,3.90
2023-04-08T00:27:33.844Z,4.00
2023-04-08T00:30:01.611Z,4.00
2023-04-08T00:32:29.177Z,4.00
2023-04-08T00:34:56.411Z,4.00
2023-04-08T00:37:23.224Z,4.00
2023-04-08T00:39:50.426Z,4.00
2023-04-08T00:42:17.578Z,4.00
2023-04-08T00:44:44.363Z,4.00
2023-04-08T00:47:15.598Z,4.00
2023-04-08T00:49:43.357Z,4.00
2023-04-08T00:52:10.548Z,4.00
2023-04-08T00:54:38.343Z,4.00
2023-04-08T00:57:06.463Z,3.90
2023-04-08T00:59:35.946Z,4.00
2023-04-08T01:02:11.749Z,4.00
2023-04-08T01:04:50.583Z,3.90
2023-04-08T01:07:17.255Z,4.00
2023-04-08T01:09:51.147Z,3.90
2023-04-08T01:12:30.409Z,4.00
2023-04-08T01:15:05.555Z,4.00
2023-04-08T01:17:32.770Z,4.00
2023-04-08T01:20:01.817Z,4.00
2023-04-08T01:22:43.653Z,4.00
2023-04-08T01:25:24.388Z,4.00
2023-04-08T01:27:56.406Z,4.00
2023-04-08T01:30:24.644Z,4.00
2023-04-08T01:32:54.250Z,4.00
2023-04-08T01:35:21.861Z,4.00
2023-04-08T01:37:51.577Z,4.00
2023-04-08T01:40:20.038Z,4.00
2023-04-08T01:42:49.698Z,3.90
2023-04-08T01:45:17.917Z,3.90
2023-04-08T01:47:48.736Z,3.90
2023-04-08T01:50:16.799Z,3.90
2023-04-08T01:52:49.115Z,3.90
2023-04-08T01:55:17.124Z,3.90
2023-04-08T01:57:51.146Z,3.90
2023-04-08T02:00:21.048Z,3.90
2023-04-08T02:02:49.161Z,3.90
2023-04-08T02:05:16.395Z,3.90
2023-04-08T02:07:43.220Z,4.00
2023-04-08T02:10:10.362Z,4.00
2023-04-08T02:12:37.332Z,3.90
2023-04-08T02:15:04.476Z,3.90
2023-04-08T02:17:44.147Z,4.00
2023-04-08T02:20:16.956Z,3.90
2023-04-08T02:23:19.803Z,3.90
2023-04-08T02:25:48.607Z,3.90
2023-04-08T02:28:17.404Z,3.90
2023-04-08T02:30:50.950Z,4.00
2023-04-08T02:33:21.047Z,4.00
2023-04-08T02:35:54.705Z,4.00
2023-04-08T02:38:23.863Z,4.00
2023-04-08T02:40:51.504Z,4.00
2023-04-08T02:43:18.413Z,3.90
2023-04-08T02:45:45.584Z,3.90
2023-04-08T02:48:12.453Z,3.90
2023-04-08T02:50:40.649Z,3.90
2023-04-08T02:53:08.842Z,3.90
2023-04-08T02:55:35.756Z,3.90
2023-04-08T02:58:02.561Z,3.90
2023-04-08T03:00:29.366Z,4.00
2023-04-08T03:02:56.608Z,3.90
2023-04-08T03:05:23.568Z,3.90
2023-04-08T03:07:50.448Z,3.90
2023-04-08T03:10:17.315Z,3.90
2023-04-08T03:12:44.222Z,3.90
2023-04-08T03:15:10.990Z,3.90
2023-04-08T03:17:37.865Z,3.90
2023-04-08T03:20:05.164Z,3.90
2023-04-08T03:22:32.234Z,3.90
2023-04-08T03:24:59.035Z,3.90
2023-04-08T03:27:26.245Z,3.90
2023-04-08T03:29:53.155Z,3.90
2023-04-08T03:32:20.344Z,3.90
2023-04-08T03:34:47.093Z,3.90
2023-04-08T03:37:13.878Z,3.80
2023-04-08T03:39:40.592Z,3.80
2023-04-08T03:42:07.358Z,3.80
2023-04-08T03:44:34.098Z,3.80
2023-04-08T03:47:00.897Z,3.80
2023-04-08T03:49:27.675Z,3.80
2023-04-08T03:51:54.437Z,3.80
2023-04-08T03:54:21.196Z,3.80
2023-04-08T03:56:49.390Z,3.80
2023-04-08T03:59:16.137Z,3.80
2023-04-08T04:01:42.913Z,3.70
2023-04-08T04:04:09.970Z,3.70
2023-04-08T04:06:37.727Z,3.70
2023-04-08T04:09:04.694Z,3.70
2023-04-08T04:11:31.421Z,3.70
2023-04-08T04:13:58.143Z,3.70
2023-04-08T04:16:25.069Z,3.70
2023-04-08T04:18:53.506Z,3.70
2023-04-08T04:21:20.771Z,3.70
2023-04-08T04:23:47.610Z,3.70
2023-04-08T04:26:15.160Z,3.70
2023-04-08T04:28:41.988Z,3.70
2023-04-08T04:31:08.809Z,3.70
2023-04-08T04:33:35.712Z,3.70
2023-04-08T04:36:02.789Z,3.70
2023-04-08T04:38:29.765Z,3.60
2023-04-08T04:40:57.820Z,3.70
2023-04-08T04:43:24.562Z,3.60
2023-04-08T04:45:51.610Z,3.60
2023-04-08T04:48:18.408Z,3.70
2023-04-08T04:50:45.559Z,3.70
2023-04-08T04:53:12.411Z,3.70
2023-04-08T04:55:39.394Z,3.70
2023-04-08T04:58:06.648Z,3.70
2023-04-08T05:00:33.447Z,3.80
2023-04-08T05:03:00.541Z,3.80
2023-04-08T05:05:27.459Z,3.80
2023-04-08T05:07:54.246Z,3.80
2023-04-08T05:10:21.273Z,3.70
2023-04-08T05:12:48.105Z,3.70
2023-04-08T05:15:15.027Z,3.70
2023-04-08T05:17:41.798Z,3.70
2023-04-08T05:20:08.867Z,3.70
2023-04-08T05:22:35.721Z,3.70
2023-04-08T05:25:02.661Z,3.70
2023-04-08T05:27:29.556Z,3.70
2023-04-08T05:29:56.410Z,3.80
2023-04-08T05:32:23.236Z,3.70
2023-04-08T05:34:49.955Z,3.80
2023-04-08T05:37:16.739Z,3.80
2023-04-08T05:39:43.541Z,3.80
2023-04-08T05:42:10.992Z,3.80
2023-04-08T05:44:38.688Z,3.80
2023-04-08T05:47:05.497Z,3.80
2023-04-08T05:49:33.328Z,3.80
2023-04-08T05:52:00.101Z,3.80
2023-04-08T05:54:26.853Z,3.80
2023-04-08T05:56:53.614Z,3.80
2023-04-08T05:59:20.399Z,3.80
2023-04-08T06:01:47.241Z,3.90
2023-04-08T06:04:14.269Z,3.80
2023-04-08T06:06:41.224Z,3.90
2023-04-08T06:09:08.835Z,3.90
2023-04-08T06:11:35.876Z,3.90
2023-04-08T06:14:02.634Z,3.90
2023-04-08T06:16:29.464Z,4.00
2023-04-08T06:18:56.278Z,4.00
2023-04-08T06:21:23.133Z,4.00
2023-04-08T06:23:50.150Z,4.00
2023-04-08T06:26:16.982Z,4.10
2023-04-08T06:28:43.766Z,4.10
2023-04-08T06:31:10.815Z,4.10
2023-04-08T06:33:37.628Z,4.20
2023-04-08T06:36:08.398Z,4.20
2023-04-08T06:38:35.571Z,4.20
2023-04-08T06:41:06.479Z,4.20
2023-04-08T06:43:34.397Z,4.20
2023-04-08T06:46:01.596Z,4.20
2023-04-08T06:48:30.209Z,4.10
2023-04-08T06:50:58.533Z,4.10
2023-04-08T06:53:26.231Z,4.10
2023-04-08T06:55:53.379Z,4.10
2023-04-08T06:58:20.389Z,4.20
2023-04-08T07:00:47.841Z,4.10
2023-04-08T07:03:14.868Z,4.20
2023-04-08T07:05:42.127Z,4.10
2023-04-08T07:08:09.170Z,4.20
2023-04-08T07:10:36.229Z,4.20
2023-04-08T07:13:03.438Z,4.20
2023-04-08T07:15:30.514Z,4.20
2023-04-08T07:17:58.705Z,4.10
2023-04-08T07:20:26.190Z,4.10
2023-04-08T07:22:53.052Z,4.10
2023-04-08T07:25:20.083Z,4.20
2023-04-08T07:27:46.846Z,4.20
2023-04-08T07:30:13.721Z,4.10
2023-04-08T07:32:41.013Z,4.20
2023-04-08T07:35:08.139Z,4.30
2023-04-08T07:37:34.914Z,4.40
2023-04-08T07:40:01.753Z,4.40
2023-04-08T07:42:29.108Z,4.50
2023-04-08T07:44:56.065Z,4.50
2023-04-08T07:47:22.866Z,4.50
2023-04-08T07:49:49.777Z,4.50
2023-04-08T07:52:16.586Z,4.50
2023-04-08T07:54:43.502Z,4.50
2023-04-08T07:57:10.327Z,4.50
2023-04-08T07:59:37.352Z,4.50
2023-04-08T08:02:04.521Z,4.60
2023-04-08T08:04:31.769Z,4.50
2023-04-08T08:06:58.773Z,4.60
2023-04-08T08:09:25.843Z,4.60
2023-04-08T08:11:52.616Z,4.60
2023-04-08T08:14:19.381Z,4.60
2023-04-08T08:16:49.809Z,4.60
2023-04-08T08:19:19.081Z,4.70
2023-04-08T08:21:46.378Z,4.90
2023-04-08T08:24:13.453Z,4.90
2023-04-08T08:26:40.704Z,4.80
2023-04-08T08:29:08.771Z,4.90
2023-04-08T08:31:35.878Z,4.90
2023-04-08T08:34:03.108Z,4.90
2023-04-08T08:36:29.910Z,4.90
2023-04-08T08:38:56.695Z,5.00
2023-04-08T08:41:23.527Z,5.00
2023-04-08T08:43:50.632Z,5.10
2023-04-08T08:46:19.198Z,5.10
2023-04-08T08:48:46.571Z,5.20
2023-04-08T08:51:14.118Z,5.20
2023-04-08T08:53:45.204Z,5.30
2023-04-08T08:58:45.074Z,5.30
2023-04-08T09:01:32.482Z,5.40
2023-04-08T09:04:26.816Z,5.40
2023-04-08T09:07:11.288Z,5.40
2023-04-08T09:09:51.995Z,5.40
2023-04-08T09:12:19.012Z,5.40
2023-04-08T09:14:46.406Z,5.40
2023-04-08T09:17:13.229Z,5.40
2023-04-08T09:19:40.339Z,5.50
2023-04-08T09:22:11.462Z,5.50
2023-04-08T09:24:38.647Z,5.50
2023-04-08T09:27:05.763Z,5.50
2023-04-08T09:29:35.270Z,5.50
2023-04-08T09:32:04.154Z,5.60
2023-04-08T09:34:32.526Z,5.50
2023-04-08T09:36:59.443Z,5.50
2023-04-08T09:39:26.415Z,5.60
2023-04-08T09:41:55.762Z,5.60
2023-04-08T09:44:26.949Z,5.50
2023-04-08T09:47:08.334Z,5.60
2023-04-08T09:49:44.785Z,5.60
2023-04-08T09:52:22.445Z,5.60
2023-04-08T09:54:59.722Z,5.70
2023-04-08T09:57:46.664Z,5.80
2023-04-08T10:00:15.566Z,5.80
2023-04-08T10:03:07.763Z,5.90
2023-04-08T10:05:39.049Z,5.80
2023-04-08T10:08:07.291Z,5.80
2023-04-08T10:10:40.128Z,5.90
2023-04-08T10:13:10.095Z,5.80
2023-04-08T10:15:38.385Z,5.80
2023-04-08T10:18:08.523Z,5.80
2023-04-08T10:20:38.339Z,5.90
2023-04-08T10:23:13.781Z,6.00
2023-04-08T10:25:48.509Z,6.00
2023-04-08T10:28:16.228Z,6.10
2023-04-08T10:30:46.972Z,6.00
2023-04-08T10:33:20.906Z,6.20
2023-04-08T10:35:49.743Z,6.30
2023-04-08T10:38:17.678Z,6.30
2023-04-08T10:40:45.011Z,6.40
2023-04-08T10:43:13.688Z,6.70
2023-04-08T10:45:41.149Z,7.00
2023-04-08T10:48:14.660Z,7.10
2023-04-08T10:50:41.894Z,7.20
2023-04-08T10:53:08.753Z,7.10
2023-04-08T10:55:35.626Z,7.00
2023-04-08T10:58:09.393Z,7.00
2023-04-08T11:00:38.404Z,6.90
2023-04-08T11:03:08.246Z,6.80
2023-04-08T11:05:39.458Z,6.80
2023-04-08T11:08:06.634Z,6.80
2023-04-08T11:10:41.301Z,6.70
2023-04-08T11:13:09.992Z,6.70
2023-04-08T11:15:38.528Z,6.80
2023-04-08T11:18:06.445Z,6.90
2023-04-08T11:20:37.041Z,6.80
2023-04-08T11:23:03.748Z,6.80
2023-04-08T11:25:30.874Z,6.80
2023-04-08T11:27:57.987Z,6.70
2023-04-08T11:30:24.948Z,6.80
2023-04-08T11:32:52.321Z,6.70
2023-04-08T11:35:20.441Z,6.60
2023-04-08T11:37:47.842Z,6.70
2023-04-08T11:40:20.824Z,6.70
2023-04-08T11:42:47.821Z,6.60
2023-04-08T11:45:16.728Z,6.70
2023-04-08T11:47:44.799Z,6.80
2023-04-08T11:50:11.859Z,6.80
2023-04-08T11:52:49.119Z,6.90
2023-04-08T11:55:42.300Z,7.00
2023-04-08T11:58:09.072Z,7.00
2023-04-08T12:00:37.220Z,7.00
2023-04-08T12:03:04.302Z,7.00
2023-04-08T12:05:31.111Z,7.10
2023-04-08T12:07:57.988Z,7.00
2023-04-08T12:10:27.503Z,7.10
2023-04-08T12:12:54.522Z,7.20
2023-04-08T12:15:21.309Z,7.20
2023-04-08T12:17:48.115Z,7.30
2023-04-08T12:20:17.061Z,7.40
2023-04-08T12:22:43.794Z,7.50
2023-04-08T12:25:10.736Z,7.50
2023-04-08T12:27:37.470Z,7.60
2023-04-08T12:30:04.702Z,7.80
2023-04-08T12:32:31.754Z,7.80
2023-04-08T12:34:58.586Z,7.80
2023-04-08T12:37:25.351Z,7.90
2023-04-08T12:39:52.420Z,7.90
2023-04-08T12:42:19.280Z,8.00
2023-04-08T12:44:46.368Z,8.10
2023-04-08T12:47:13.346Z,7.90
2023-04-08T12:52:09.950Z,7.90
2023-04-08T12:54:36.703Z,8.00
2023-04-08T12:57:04.593Z,7.90
2023-04-08T12:59:33.442Z,8.00
2023-04-08T13:02:00.304Z,7.80
2023-04-08T13:04:27.114Z,7.70
2023-04-08T13:06:53.859Z,7.80
2023-04-08T13:09:20.849Z,7.80
2023-04-08T13:11:47.595Z,7.80
2023-04-08T13:14:14.380Z,7.70
2023-04-08T13:16:41.291Z,7.80
2023-04-08T13:19:08.093Z,7.70
2023-04-08T13:21:34.897Z,7.60
2023-04-08T13:24:02.217Z,7.70
2023-04-08T13:26:29.180Z,7.70
2023-04-08T13:28:57.624Z,7.70
2023-04-08T13:31:25.462Z,7.80
2023-04-08T13:33:53.863Z,7.90
2023-04-08T13:36:22.124Z,7.90
2023-04-08T13:38:49.112Z,8.00
2023-04-08T13:41:16.065Z,8.00
2023-04-08T13:43:43.429Z,7.90
2023-04-08T13:46:10.272Z,7.90
2023-04-08T13:48:37.106Z,7.90
2023-04-08T13:51:03.957Z,7.90
2023-04-08T13:53:30.891Z,7.90
2023-04-08T13:55:59.069Z,7.90
2023-04-08T13:58:28.630Z,7.90
2023-04-08T14:00:55.957Z,7.80
2023-04-08T14:03:22.857Z,8.00
2023-04-08T14:05:50.949Z,7.90
2023-04-08T14:08:24.990Z,8.00
2023-04-08T14:10:52.386Z,8.00
2023-04-08T14:13:19.218Z,8.00
2023-04-08T14:15:46.944Z,8.00
2023-04-08T14:18:14.033Z,8.10
2023-04-08T14:20:41.424Z,8.10
2023-04-08T14:23:08.208Z,8.10
2023-04-08T14:25:35.128Z,8.10
2023-04-08T14:28:01.883Z,8.20
2023-04-08T14:30:28.853Z,8.20
2023-04-08T14:32:55.818Z,8.20
2023-04-08T14:35:22.958Z,8.30
2023-04-08T14:37:49.764Z,8.30
2023-04-08T14:40:16.598Z,8.30
2023-04-08T14:42:45.362Z,8.20
2023-04-08T14:45:12.279Z,8.20
2023-04-08T14:47:39.067Z,8.20
2023-04-08T14:50:06.559Z,8.10
2023-04-08T14:52:33.303Z,8.10
2023-04-08T14:55:00.077Z,8.10
2023-04-08T14:57:27.270Z,8.10
2023-04-08T14:59:54.367Z,8.10
2023-04-08T15:02:21.289Z,8.20
2023-04-08T15:04:48.116Z,8.20
2023-04-08T15:07:14.887Z,8.20
2023-04-08T15:09:41.873Z,8.10
2023-04-08T15:12:08.642Z,8.10
2023-04-08T15:14:35.477Z,8.10
2023-04-08T15:17:02.227Z,8.10
2023-04-08T15:19:28.989Z,8.00
2023-04-08T15:21:55.858Z,8.00
2023-04-08T15:24:22.774Z,7.90
2023-04-08T15:26:49.552Z,7.90
2023-04-08T15:29:17.006Z,7.90
2023-04-08T15:31:43.883Z,7.90
2023-04-08T15:34:10.949Z,7.90
2023-04-08T15:36:37.823Z,8.00
2023-04-08T15:39:04.730Z,7.90
2023-04-08T15:42:06.025Z,7.90
2023-04-08T15:44:33.228Z,7.80
2023-04-08T15:47:00.156Z,7.80
2023-04-08T15:49:26.964Z,7.80
2023-04-08T15:51:53.780Z,7.80
2023-04-08T15:54:20.633Z,7.80
2023-04-08T15:56:47.416Z,7.80
2023-04-08T15:59:14.391Z,7.80
2023-04-08T16:01:41.993Z,7.70
2023-04-08T16:04:08.936Z,7.60
2023-04-08T16:06:36.815Z,7.50
2023-04-08T16:09:03.704Z,7.50
2023-04-08T16:11:30.445Z,7.50
2023-04-08T16:13:57.324Z,7.50
2023-04-08T16:16:24.153Z,7.50
2023-04-08T16:21:19.234Z,7.50
2023-04-08T16:23:49.161Z,7.40
2023-04-08T16:26:16.038Z,7.50
2023-04-08T16:28:43.385Z,7.40
2023-04-08T16:31:10.218Z,7.40
2023-04-08T16:33:37.313Z,7.40
2023-04-08T16:36:04.429Z,7.40
2023-04-08T16:38:31.349Z,7.40
2023-04-08T16:40:58.816Z,7.50
2023-04-08T16:43:26.002Z,7.50
2023-04-08T16:45:53.227Z,7.50
2023-04-08T16:48:20.103Z,7.60
2023-04-08T16:50:47.674Z,7.60
2023-04-08T16:53:14.472Z,7.60
2023-04-08T16:55:41.344Z,7.60
2023-04-08T16:58:08.196Z,7.50
2023-04-08T17:00:34.987Z,7.50
2023-04-08T17:03:02.241Z,7.50
2023-04-08T17:05:29.448Z,7.50
2023-04-08T17:07:58.934Z,7.40
2023-04-08T17:10:25.700Z,7.40
2023-04-08T17:12:52.585Z,7.30
2023-04-08T17:15:19.432Z,7.30
2023-04-08T17:17:47.804Z,7.20
2023-04-08T17:20:14.685Z,7.20
2023-04-08T17:22:42.015Z,7.20
2023-04-08T17:25:09.051Z,7.20
2023-04-08T17:27:35.790Z,7.10
2023-04-08T17:30:02.761Z,7.10
2023-04-08T17:32:29.556Z,7.10
2023-04-08T17:34:56.280Z,7.10
2023-04-08T17:37:23.109Z,7.00
2023-04-08T17:39:51.451Z,7.00
2023-04-08T17:42:22.400Z,7.00
2023-04-08T17:44:49.243Z,7.00
2023-04-08T17:47:16.221Z,7.00
2023-04-08T17:49:43.029Z,6.90
2023-04-08T17:52:09.861Z,6.90
2023-04-08T17:54:36.649Z,6.90
2023-04-08T17:57:03.507Z,6.90
2023-04-08T17:59:30.274Z,6.90
2023-04-08T18:01:57.057Z,6.80
2023-04-08T18:04:23.962Z,6.80
2023-04-08T18:06:50.857Z,6.80
2023-04-08T18:09:17.639Z,6.80
2023-04-08T18:11:44.417Z,6.80
2023-04-08T18:14:12.553Z,6.70
2023-04-08T18:16:39.350Z,6.70
2023-04-08T18:19:06.353Z,6.70
2023-04-08T18:21:33.105Z,6.70
2023-04-08T18:23:59.854Z,6.60
2023-04-08T18:26:28.234Z,6.60
2023-04-08T18:28:55.278Z,6.60
2023-04-08T18:31:22.204Z,6.60
2023-04-08T18:33:49.372Z,6.60
2023-04-08T18:36:17.386Z,6.60
2023-04-08T18:38:44.768Z,6.50
2023-04-08T18:41:13.240Z,6.50
2023-04-08T18:43:40.636Z,6.50
2023-04-08T18:46:07.745Z,6.50
2023-04-08T18:48:34.511Z,6.50
2023-04-08T18:51:04.279Z,6.50
2023-04-08T18:53:31.208Z,6.50
2023-04-08T18:55:58.374Z,6.50
2023-04-08T18:58:25.360Z,6.50
2023-04-08T19:00:52.222Z,6.40
2023-04-08T19:03:19.364Z,6.40
2023-04-08T19:05:46.611Z,6.40
2023-04-08T19:08:13.430Z,6.40
2023-04-08T19:10:40.792Z,6.40
2023-04-08T19:13:07.553Z,6.40
2023-04-08T19:15:34.305Z,6.40
2023-04-08T19:18:01.132Z,6.30
2023-04-08T19:20:28.501Z,6.30
2023-04-08T19:22:55.959Z,6.30
2023-04-08T19:25:22.879Z,6.30
2023-04-08T19:27:49.760Z,6.30
2023-04-08T19:30:16.669Z,6.20
2023-04-08T19:32:43.478Z,6.20
2023-04-08T19:35:13.419Z,6.20
2023-04-08T19:37:40.697Z,6.20
2023-04-08T19:40:08.832Z,6.10
2023-04-08T19:42:36.325Z,6.10
2023-04-08T19:45:03.716Z,6.10
2023-04-08T19:47:30.555Z,6.00
2023-04-08T19:49:58.246Z,6.10
2023-04-08T19:52:25.479Z,6.10
2023-04-08T19:54:52.996Z,6.00
2023-04-08T19:57:20.565Z,6.00
2023-04-08T19:59:50.007Z,6.00
2023-04-08T20:02:16.924Z,6.00
2023-04-08T20:04:45.123Z,6.00
2023-04-08T20:07:12.671Z,6.00
2023-04-08T20:09:39.374Z,6.00
2023-04-08T20:12:06.318Z,6.00
2023-04-08T20:14:34.082Z,6.00
2023-04-08T20:17:01.080Z,6.00
2023-04-08T20:19:28.583Z,6.00
2023-04-08T20:21:55.322Z,6.00
2023-04-08T20:24:22.459Z,5.90
2023-04-08T20:26:49.855Z,5.90
2023-04-08T20:29:16.741Z,5.90
2023-04-08T20:31:44.808Z,5.90
2023-04-08T20:34:12.814Z,5.80
2023-04-08T20:36:40.012Z,5.80
2023-04-08T20:39:10.688Z,5.80
2023-04-08T20:41:37.995Z,5.80
2023-04-08T20:44:10.343Z,5.80
2023-04-08T20:46:37.899Z,5.80
2023-04-08T20:49:05.186Z,5.80
2023-04-08T20:51:35.633Z,5.70
2023-04-08T20:54:02.440Z,5.70
2023-04-08T20:56:29.661Z,5.70
2023-04-08T20:58:58.196Z,5.70
2023-04-08T21:01:27.012Z,5.70
2023-04-08T21:03:54.689Z,5.70
2023-04-08T21:06:22.206Z,5.70
2023-04-08T21:08:49.654Z,5.70
2023-04-08T21:11:17.148Z,5.70
2023-04-08T21:13:44.984Z,5.70
2023-04-08T21:16:12.748Z,5.70
2023-04-08T21:18:40.098Z,5.70
2023-04-08T21:21:06.883Z,5.70
2023-04-08T21:23:33.634Z,5.70
2023-04-08T21:26:02.724Z,5.70
2023-04-08T21:28:30.357Z,5.70
2023-04-08T21:31:06.857Z,5.80
2023-04-08T21:33:33.660Z,5.70
2023-04-08T21:36:00.605Z,5.70
2023-04-08T21:38:27.486Z,5.80
2023-04-08T21:40:54.194Z,5.80
2023-04-08T21:43:21.837Z,5.80
2023-04-08T21:45:48.668Z,5.80
2023-04-08T21:48:15.631Z,5.80
2023-04-08T21:50:42.403Z,5.80
2023-04-08T21:53:09.149Z,5.80
2023-04-08T21:55:35.984Z,5.70
2023-04-08T21:58:02.756Z,5.70
2023-04-08T22:00:30.217Z,5.70
2023-04-08T22:02:57.074Z,5.70
2023-04-08T22:05:23.867Z,5.80
2023-04-08T22:07:50.613Z,5.70
2023-04-08T22:10:17.470Z,5.80
2023-04-08T22:12:44.220Z,5.70
2023-04-08T22:15:11.243Z,5.70
2023-04-08T22:17:38.105Z,5.70
2023-04-08T22:20:05.283Z,5.70
2023-04-08T22:22:32.155Z,5.80
2023-04-08T22:24:58.971Z,5.80
2023-04-08T22:27:27.646Z,5.80
2023-04-08T22:29:54.373Z,5.80
2023-04-08T22:32:21.115Z,5.80
2023-04-08T22:34:47.857Z,5.80
2023-04-08T22:37:14.567Z,5.80
2023-04-08T22:39:41.322Z,5.80
2023-04-08T22:42:08.027Z,5.80
2023-04-08T22:44:34.815Z,5.80
2023-04-08T22:47:01.599Z,5.70
2023-04-08T22:49:28.401Z,5.80
2023-04-08T22:51:55.268Z,5.70
2023-04-08T22:54:22.471Z,5.80
2023-04-08T22:56:49.240Z,5.80
2023-04-08T22:59:16.204Z,5.80
2023-04-08T23:01:44.113Z,5.80
2023-04-08T23:04:11.134Z,5.70
2023-04-08T23:06:37.919Z,5.70
2023-04-08T23:09:04.690Z,5.70
2023-04-08T23:11:31.451Z,5.70
2023-04-08T23:13:58.166Z,5.70
2023-04-08T23:16:25.023Z,5.70
2023-04-08T23:18:52.039Z,5.70
2023-04-08T23:21:20.313Z,5.70
2023-04-08T23:23:47.053Z,5.70
2023-04-08T23:26:18.079Z,5.70
2023-04-08T23:28:45.017Z,5.70
2023-04-08T23:31:12.023Z,5.70
2023-04-08T23:33:38.945Z,5.70
2023-04-08T23:36:09.776Z,5.70
2023-04-08T23:38:39.944Z,5.60
2023-04-08T23:41:07.674Z,5.60
2023-04-08T23:43:34.872Z,5.60
2023-04-08T23:46:01.626Z,5.60
2023-04-08T23:48:28.337Z,5.60
2023-04-08T23:50:56.061Z,5.60
2023-04-08T23:53:23.093Z,5.50
2023-04-08T23:55:49.858Z,5.50
2023-04-08T23:58:16.652Z,5.50
